No particular awareness of the weather is required.    There are no Weather-warnings


Meteo18 Weather Cam more information Meteo18 Weather Cam


Thunder radar more information blitzortung!


Rain radar more information rain snow radar


Visit our other weather sites:

Template documentation
and downloads

And another site



Weather Underground History page Text

Daily Summary for January 16, 2018 Units:  Both    English   Metric
« Previous Day
Next Day »
Daily Weekly Monthly Yearly Custom
  High: Low: Average:
Temperature: TemperatureC °F /  -17.8 °C 7.1 °F /  -13.8 °C 9.3 °F /  -12.6 °C
Dew Point: DewpointC °F /  -17.8 °C 4.5 °F /  -15.3 °C 7.2 °F /  -13.8 °C
Humidity: Humidity % 73 % 87 %
Wind Speed: WindSpeedKMH mph /  0 km/h - 18.8 mph /  30.3 km/h
Wind Gust: WindSpeedGustKMH mph /  0 km/h - -
Wind:- - WSW
Pressure: PressurehPa in /  0 hPa 1005.3 in /  34039.5 hPa -
Precipitation: 8.9 in /  226.06 mm    
Historical Graphs
 
 
Tabular Data for January 16, 2018
Time Temperature Dew Point Pressure Wind Wind Speed Wind Gust Humidity Rainfall Rate (Hourly)
TemperatureC °F /  -17.8 °C DewpointC °F /  -17.8 °C PressurehPa in /  0 hPa Calm     Humidity % HourlyPrecipMM in /  0 mm
00:02 9.0 °F /  -12.8 °C 8.1 °F /  -13.3 °C 1007.7 in /  34120.7 hPa West 16.3 mph /  26.2 km/h 22.5 mph /  36.2 km/h 94 % 0.3 in /  7.62 mm
00:08 9.0 °F /  -12.8 °C 8.1 °F /  -13.3 °C 1007.7 in /  34120.7 hPa WSW 13.0 mph /  20.9 km/h 25.7 mph /  41.4 km/h 94 % 0.3 in /  7.62 mm
00:14 8.9 °F /  -12.8 °C 8.0 °F /  -13.3 °C 1007.7 in /  34120.7 hPa SW 11.1 mph /  17.9 km/h 25.7 mph /  41.4 km/h 94 % 0.3 in /  7.62 mm
00:26 9.0 °F /  -12.8 °C 8.1 °F /  -13.3 °C 1008.0 in /  34130.9 hPa West 20.9 mph /  33.6 km/h 22.5 mph /  36.2 km/h 94 % 0.3 in /  7.62 mm
00:32 9.0 °F /  -12.8 °C 8.1 °F /  -13.3 °C 1008.0 in /  34130.9 hPa SW 19.5 mph /  31.4 km/h 27.4 mph /  44.1 km/h 94 % 0.3 in /  7.62 mm
00:38 9.1 °F /  -12.7 °C 8.2 °F /  -13.2 °C 1007.7 in /  34120.7 hPa SW 20.9 mph /  33.6 km/h 27.4 mph /  44.1 km/h 94 % 0.3 in /  7.62 mm
00:44 9.1 °F /  -12.7 °C 8.2 °F /  -13.2 °C 1008.0 in /  34130.9 hPa WSW 25.9 mph /  41.7 km/h 30.6 mph /  49.2 km/h 94 % 0.0 in /  0 mm
00:50 9.1 °F /  -12.7 °C 8.0 °F /  -13.3 °C 1007.7 in /  34120.7 hPa WSW 13.0 mph /  20.9 km/h 32.2 mph /  51.8 km/h 93 % 0.3 in /  7.62 mm
00:56 9.1 °F /  -12.7 °C 8.2 °F /  -13.2 °C 1007.7 in /  34120.7 hPa SW 16.3 mph /  26.2 km/h 27.4 mph /  44.1 km/h 94 % 0.3 in /  7.62 mm
01:02 9.1 °F /  -12.7 °C 8.2 °F /  -13.2 °C 1007.3 in /  34107.2 hPa SW 13.0 mph /  20.9 km/h 29.0 mph /  46.7 km/h 94 % 0.3 in /  7.62 mm
01:13 8.9 °F /  -12.8 °C 8.0 °F /  -13.3 °C 1007.3 in /  34107.2 hPa SW 20.9 mph /  33.6 km/h 24.1 mph /  38.8 km/h 94 % 0.5 in /  12.7 mm
01:23 8.9 °F /  -12.8 °C 8.0 °F /  -13.3 °C 1007.3 in /  34107.2 hPa WNW 4.7 mph /  7.6 km/h 25.7 mph /  41.4 km/h 94 % 0.5 in /  12.7 mm
01:29 8.9 °F /  -12.8 °C 8.0 °F /  -13.3 °C 1007.3 in /  34107.2 hPa SSW 11.1 mph /  17.9 km/h 24.1 mph /  38.8 km/h 94 % 0.5 in /  12.7 mm
01:35 8.9 °F /  -12.8 °C 8.0 °F /  -13.3 °C 1007.0 in /  34097 hPa WSW 9.7 mph /  15.6 km/h 27.4 mph /  44.1 km/h 94 % 0.5 in /  12.7 mm
01:45 9.0 °F /  -12.8 °C 8.1 °F /  -13.3 °C 1007.0 in /  34097 hPa WSW 20.9 mph /  33.6 km/h 30.6 mph /  49.2 km/h 94 % 0.5 in /  12.7 mm
01:51 9.0 °F /  -12.8 °C 8.1 °F /  -13.3 °C 1006.7 in /  34086.9 hPa SW 14.3 mph /  23 km/h 19.3 mph /  31.1 km/h 94 % 0.8 in /  20.32 mm
01:57 9.0 °F /  -12.8 °C 8.2 °F /  -13.2 °C 1006.7 in /  34086.9 hPa SSW 16.3 mph /  26.2 km/h 19.3 mph /  31.1 km/h 95 % 1.0 in /  25.4 mm
02:03 9.0 °F /  -12.8 °C 8.2 °F /  -13.2 °C 1006.7 in /  34086.9 hPa West 7.9 mph /  12.7 km/h 17.7 mph /  28.5 km/h 95 % 1.5 in /  38.1 mm
02:09 9.0 °F /  -12.8 °C 8.2 °F /  -13.2 °C 1006.7 in /  34086.9 hPa WSW 14.3 mph /  23 km/h 32.2 mph /  51.8 km/h 95 % 1.8 in /  45.72 mm
02:23 9.2 °F /  -12.7 °C 8.1 °F /  -13.3 °C 1006.3 in /  34073.3 hPa WSW 25.9 mph /  41.7 km/h 38.6 mph /  62.1 km/h 93 % 1.8 in /  45.72 mm
02:29 9.3 °F /  -12.6 °C 8.2 °F /  -13.2 °C 1006.7 in /  34086.9 hPa West 16.3 mph /  26.2 km/h 30.6 mph /  49.2 km/h 93 % 1.8 in /  45.72 mm
02:35 9.3 °F /  -12.6 °C 8.2 °F /  -13.2 °C 1006.7 in /  34086.9 hPa WSW 28.8 mph /  46.3 km/h 33.8 mph /  54.4 km/h 93 % 1.8 in /  45.72 mm
02:41 9.2 °F /  -12.7 °C 8.1 °F /  -13.3 °C 1006.7 in /  34086.9 hPa SW 20.9 mph /  33.6 km/h 25.7 mph /  41.4 km/h 93 % 2.0 in /  50.8 mm
02:49 9.2 °F /  -12.7 °C 8.1 °F /  -13.3 °C 1006.7 in /  34086.9 hPa WSW 16.3 mph /  26.2 km/h 24.1 mph /  38.8 km/h 93 % 1.5 in /  38.1 mm
02:55 9.2 °F /  -12.7 °C 8.0 °F /  -13.3 °C 1006.7 in /  34086.9 hPa SW 14.3 mph /  23 km/h 35.4 mph /  57 km/h 92 % 1.3 in /  33.02 mm
03:01 9.2 °F /  -12.7 °C 8.0 °F /  -13.3 °C 1006.7 in /  34086.9 hPa WSW 13.0 mph /  20.9 km/h 25.7 mph /  41.4 km/h 92 % 1.0 in /  25.4 mm
03:07 9.3 °F /  -12.6 °C 8.1 °F /  -13.3 °C 1006.3 in /  34073.3 hPa WSW 17.7 mph /  28.5 km/h 45.1 mph /  72.6 km/h 92 % 0.3 in /  7.62 mm
03:13 9.2 °F /  -12.7 °C 8.1 °F /  -13.3 °C 1006.7 in /  34086.9 hPa WSW 16.3 mph /  26.2 km/h 30.6 mph /  49.2 km/h 93 % 0.5 in /  12.7 mm
03:19 9.1 °F /  -12.7 °C 8.0 °F /  -13.3 °C 1006.7 in /  34086.9 hPa WSW 22.7 mph /  36.5 km/h 30.6 mph /  49.2 km/h 93 % 0.5 in /  12.7 mm
03:27 8.9 °F /  -12.8 °C 8.0 °F /  -13.3 °C 1006.7 in /  34086.9 hPa SW 13.0 mph /  20.9 km/h 25.7 mph /  41.4 km/h 94 % 0.5 in /  12.7 mm
03:35 8.8 °F /  -12.9 °C 7.9 °F /  -13.4 °C 1006.7 in /  34086.9 hPa West 19.5 mph /  31.4 km/h 25.7 mph /  41.4 km/h 94 % 0.8 in /  20.32 mm
03:41 8.9 °F /  -12.8 °C 8.0 °F /  -13.3 °C 1006.7 in /  34086.9 hPa SW 19.5 mph /  31.4 km/h 30.6 mph /  49.2 km/h 94 % 0.8 in /  20.32 mm
03:47 8.9 °F /  -12.8 °C 8.0 °F /  -13.3 °C 1006.7 in /  34086.9 hPa WSW 20.9 mph /  33.6 km/h 30.6 mph /  49.2 km/h 94 % 0.8 in /  20.32 mm
03:57 9.0 °F /  -12.8 °C 7.9 °F /  -13.4 °C 1007.0 in /  34097 hPa WSW 16.3 mph /  26.2 km/h 35.4 mph /  57 km/h 93 % 0.8 in /  20.32 mm
04:03 9.1 °F /  -12.7 °C 7.9 °F /  -13.4 °C 1007.0 in /  34097 hPa WSW 16.3 mph /  26.2 km/h 27.4 mph /  44.1 km/h 92 % 0.8 in /  20.32 mm
04:09 9.1 °F /  -12.7 °C 7.7 °F /  -13.5 °C 1007.3 in /  34107.2 hPa West 17.7 mph /  28.5 km/h 30.6 mph /  49.2 km/h 91 % 0.8 in /  20.32 mm
04:15 9.1 °F /  -12.7 °C 7.7 °F /  -13.5 °C 1007.3 in /  34107.2 hPa WSW 17.7 mph /  28.5 km/h 24.1 mph /  38.8 km/h 91 % 0.5 in /  12.7 mm
04:27 9.0 °F /  -12.8 °C 7.8 °F /  -13.4 °C 1007.0 in /  34097 hPa WSW 14.3 mph /  23 km/h 20.9 mph /  33.6 km/h 92 % 0.5 in /  12.7 mm
04:33 8.9 °F /  -12.8 °C 7.7 °F /  -13.5 °C 1006.7 in /  34086.9 hPa WSW 16.3 mph /  26.2 km/h 25.7 mph /  41.4 km/h 92 % 0.3 in /  7.62 mm
04:39 8.8 °F /  -12.9 °C 7.6 °F /  -13.6 °C 1007.0 in /  34097 hPa South 11.1 mph /  17.9 km/h 25.7 mph /  41.4 km/h 92 % 0.0 in /  0 mm
04:45 8.8 °F /  -12.9 °C 7.6 °F /  -13.6 °C 1007.0 in /  34097 hPa WSW 13.0 mph /  20.9 km/h 20.9 mph /  33.6 km/h 92 % 0.0 in /  0 mm
04:51 8.7 °F /  -12.9 °C 7.6 °F /  -13.6 °C 1007.0 in /  34097 hPa WSW 11.1 mph /  17.9 km/h 19.3 mph /  31.1 km/h 93 % 0.0 in /  0 mm
04:57 8.6 °F /  -13 °C 7.7 °F /  -13.5 °C 1007.0 in /  34097 hPa SSW 19.5 mph /  31.4 km/h 19.5 mph /  31.4 km/h 94 % 0.3 in /  7.62 mm
05:07 8.6 °F /  -13 °C 7.8 °F /  -13.4 °C 1007.0 in /  34097 hPa West 6.4 mph /  10.3 km/h 29.0 mph /  46.7 km/h 95 % 0.8 in /  20.32 mm
05:13 8.6 °F /  -13 °C 7.8 °F /  -13.4 °C 1007.0 in /  34097 hPa WSW 9.7 mph /  15.6 km/h 32.2 mph /  51.8 km/h 95 % 0.8 in /  20.32 mm
05:21 8.7 °F /  -12.9 °C 7.8 °F /  -13.4 °C 1007.0 in /  34097 hPa SSW 13.0 mph /  20.9 km/h 22.5 mph /  36.2 km/h 94 % 0.8 in /  20.32 mm
05:27 8.7 °F /  -12.9 °C 7.8 °F /  -13.4 °C 1006.7 in /  34086.9 hPa SW 13.0 mph /  20.9 km/h 25.7 mph /  41.4 km/h 94 % 0.8 in /  20.32 mm
05:33 8.7 °F /  -12.9 °C 7.8 °F /  -13.4 °C 1006.7 in /  34086.9 hPa SW 19.5 mph /  31.4 km/h 32.2 mph /  51.8 km/h 94 % 0.8 in /  20.32 mm
05:43 8.8 °F /  -12.9 °C 7.7 °F /  -13.5 °C 1006.7 in /  34086.9 hPa WSW 13.0 mph /  20.9 km/h 32.2 mph /  51.8 km/h 93 % 0.8 in /  20.32 mm
05:49 8.9 °F /  -12.8 °C 7.8 °F /  -13.4 °C 1006.7 in /  34086.9 hPa WSW 13.0 mph /  20.9 km/h 24.1 mph /  38.8 km/h 93 % 0.8 in /  20.32 mm
05:55 8.9 °F /  -12.8 °C 7.7 °F /  -13.5 °C 1007.0 in /  34097 hPa WSW 16.3 mph /  26.2 km/h 22.5 mph /  36.2 km/h 92 % 0.8 in /  20.32 mm
06:03 8.9 °F /  -12.8 °C 7.8 °F /  -13.4 °C 1007.0 in /  34097 hPa West 16.3 mph /  26.2 km/h 22.5 mph /  36.2 km/h 93 % 0.3 in /  7.62 mm
06:09 8.9 °F /  -12.8 °C 7.8 °F /  -13.4 °C 1006.7 in /  34086.9 hPa WSW 16.3 mph /  26.2 km/h 22.5 mph /  36.2 km/h 93 % 0.3 in /  7.62 mm
06:15 8.8 °F /  -12.9 °C 7.7 °F /  -13.5 °C 1006.7 in /  34086.9 hPa WSW 20.9 mph /  33.6 km/h 24.1 mph /  38.8 km/h 93 % 0.3 in /  7.62 mm
06:21 8.8 °F /  -12.9 °C 7.7 °F /  -13.5 °C 1006.7 in /  34086.9 hPa West 9.7 mph /  15.6 km/h 22.5 mph /  36.2 km/h 93 % 0.5 in /  12.7 mm
06:27 8.7 °F /  -12.9 °C 7.8 °F /  -13.4 °C 1006.7 in /  34086.9 hPa SW 13.0 mph /  20.9 km/h 24.1 mph /  38.8 km/h 94 % 0.5 in /  12.7 mm
06:39 8.6 °F /  -13 °C 7.7 °F /  -13.5 °C 1006.7 in /  34086.9 hPa WSW 13.0 mph /  20.9 km/h 19.3 mph /  31.1 km/h 94 % 0.8 in /  20.32 mm
06:45 8.6 °F /  -13 °C 7.7 °F /  -13.5 °C 1006.7 in /  34086.9 hPa West 13.0 mph /  20.9 km/h 19.3 mph /  31.1 km/h 94 % 0.8 in /  20.32 mm
06:51 8.5 °F /  -13.1 °C 7.6 °F /  -13.6 °C 1006.7 in /  34086.9 hPa WSW 14.3 mph /  23 km/h 24.1 mph /  38.8 km/h 94 % 1.0 in /  25.4 mm
06:57 8.4 °F /  -13.1 °C 7.5 °F /  -13.6 °C 1006.3 in /  34073.3 hPa West 13.0 mph /  20.9 km/h 24.1 mph /  38.8 km/h 94 % 1.0 in /  25.4 mm
07:03 8.4 °F /  -13.1 °C 7.5 °F /  -13.6 °C 1006.3 in /  34073.3 hPa West 19.5 mph /  31.4 km/h 29.0 mph /  46.7 km/h 94 % 1.0 in /  25.4 mm
07:09 8.6 °F /  -13 °C 7.5 °F /  -13.6 °C 1006.7 in /  34086.9 hPa WSW 11.1 mph /  17.9 km/h 37.0 mph /  59.5 km/h 93 % 0.8 in /  20.32 mm
07:15 8.7 °F /  -12.9 °C 7.6 °F /  -13.6 °C 1006.3 in /  34073.3 hPa West 11.1 mph /  17.9 km/h 29.0 mph /  46.7 km/h 93 % 0.8 in /  20.32 mm
07:21 8.7 °F /  -12.9 °C 7.6 °F /  -13.6 °C 1006.7 in /  34086.9 hPa WSW 7.9 mph /  12.7 km/h 24.1 mph /  38.8 km/h 93 % 0.5 in /  12.7 mm
07:27 8.8 °F /  -12.9 °C 7.7 °F /  -13.5 °C 1006.7 in /  34086.9 hPa West 19.5 mph /  31.4 km/h 22.5 mph /  36.2 km/h 93 % 0.5 in /  12.7 mm
07:33 8.8 °F /  -12.9 °C 7.9 °F /  -13.4 °C 1006.3 in /  34073.3 hPa WSW 16.3 mph /  26.2 km/h 29.0 mph /  46.7 km/h 94 % 0.5 in /  12.7 mm
07:39 8.7 °F /  -12.9 °C 7.8 °F /  -13.4 °C 1006.3 in /  34073.3 hPa SW 9.7 mph /  15.6 km/h 24.1 mph /  38.8 km/h 94 % 0.5 in /  12.7 mm
07:49 8.8 °F /  -12.9 °C 8.0 °F /  -13.3 °C 1006.3 in /  34073.3 hPa SW 14.3 mph /  23 km/h 22.5 mph /  36.2 km/h 95 % 0.5 in /  12.7 mm
07:57 8.9 °F /  -12.8 °C 8.0 °F /  -13.3 °C 1006.3 in /  34073.3 hPa West 27.4 mph /  44.1 km/h 46.7 mph /  75.2 km/h 94 % 0.3 in /  7.62 mm
08:03 9.1 °F /  -12.7 °C 8.0 °F /  -13.3 °C 1006.3 in /  34073.3 hPa West 19.5 mph /  31.4 km/h 29.0 mph /  46.7 km/h 93 % 0.3 in /  7.62 mm
08:15 9.1 °F /  -12.7 °C 8.0 °F /  -13.3 °C 1006.7 in /  34086.9 hPa West 16.3 mph /  26.2 km/h 38.6 mph /  62.1 km/h 93 % 0.3 in /  7.62 mm
08:21 9.1 °F /  -12.7 °C 8.0 °F /  -13.3 °C 1007.0 in /  34097 hPa WSW 16.3 mph /  26.2 km/h 32.2 mph /  51.8 km/h 93 % 0.3 in /  7.62 mm
08:27 9.1 °F /  -12.7 °C 8.0 °F /  -13.3 °C 1007.0 in /  34097 hPa SW 20.9 mph /  33.6 km/h 38.6 mph /  62.1 km/h 93 % 0.3 in /  7.62 mm
08:33 9.2 °F /  -12.7 °C 8.1 °F /  -13.3 °C 1007.0 in /  34097 hPa WSW 20.9 mph /  33.6 km/h 35.4 mph /  57 km/h 93 % 0.0 in /  0 mm
08:39 9.2 °F /  -12.7 °C 8.0 °F /  -13.3 °C 1007.0 in /  34097 hPa SW 27.4 mph /  44.1 km/h 29.0 mph /  46.7 km/h 92 % 0.0 in /  0 mm
08:45 9.3 °F /  -12.6 °C 8.1 °F /  -13.3 °C 1007.0 in /  34097 hPa SW 25.9 mph /  41.7 km/h 32.2 mph /  51.8 km/h 92 % 0.0 in /  0 mm
08:51 9.3 °F /  -12.6 °C 7.9 °F /  -13.4 °C 1007.0 in /  34097 hPa SW 19.5 mph /  31.4 km/h 37.0 mph /  59.5 km/h 91 % 0.0 in /  0 mm
08:57 9.3 °F /  -12.6 °C 8.1 °F /  -13.3 °C 1007.0 in /  34097 hPa WSW 19.5 mph /  31.4 km/h 27.4 mph /  44.1 km/h 92 % 0.0 in /  0 mm
09:03 9.3 °F /  -12.6 °C 8.1 °F /  -13.3 °C 1007.0 in /  34097 hPa West 20.9 mph /  33.6 km/h 29.0 mph /  46.7 km/h 92 % 0.0 in /  0 mm
09:13 9.3 °F /  -12.6 °C 7.9 °F /  -13.4 °C 1007.0 in /  34097 hPa West 11.1 mph /  17.9 km/h 29.0 mph /  46.7 km/h 91 % 0.0 in /  0 mm
09:19 9.3 °F /  -12.6 °C 7.9 °F /  -13.4 °C 1007.3 in /  34107.2 hPa WSW 16.3 mph /  26.2 km/h 27.4 mph /  44.1 km/h 91 % 0.0 in /  0 mm
09:29 9.4 °F /  -12.6 °C 8.0 °F /  -13.3 °C 1007.3 in /  34107.2 hPa SW 19.5 mph /  31.4 km/h 29.0 mph /  46.7 km/h 91 % 0.0 in /  0 mm
09:35 9.3 °F /  -12.6 °C 7.9 °F /  -13.4 °C 1007.3 in /  34107.2 hPa West 19.5 mph /  31.4 km/h 32.2 mph /  51.8 km/h 91 % 0.0 in /  0 mm
09:41 9.2 °F /  -12.7 °C 8.0 °F /  -13.3 °C 1007.3 in /  34107.2 hPa West 28.8 mph /  46.3 km/h 37.0 mph /  59.5 km/h 92 % 0.3 in /  7.62 mm
09:53 9.1 °F /  -12.7 °C 8.0 °F /  -13.3 °C 1007.3 in /  34107.2 hPa SSW 14.3 mph /  23 km/h 24.1 mph /  38.8 km/h 93 % 0.5 in /  12.7 mm
09:59 9.1 °F /  -12.7 °C 8.0 °F /  -13.3 °C 1007.7 in /  34120.7 hPa West 27.4 mph /  44.1 km/h 29.0 mph /  46.7 km/h 93 % 0.5 in /  12.7 mm
10:05 9.1 °F /  -12.7 °C 8.0 °F /  -13.3 °C 1007.3 in /  34107.2 hPa WSW 30.6 mph /  49.2 km/h 30.6 mph /  49.2 km/h 93 % 0.5 in /  12.7 mm
10:13 9.2 °F /  -12.7 °C 8.0 °F /  -13.3 °C 1008.0 in /  34130.9 hPa West 27.4 mph /  44.1 km/h 37.0 mph /  59.5 km/h 92 % 0.5 in /  12.7 mm
10:19 9.3 °F /  -12.6 °C 8.1 °F /  -13.3 °C 1008.0 in /  34130.9 hPa WSW 11.1 mph /  17.9 km/h 33.8 mph /  54.4 km/h 92 % 0.5 in /  12.7 mm
10:25 9.3 °F /  -12.6 °C 7.9 °F /  -13.4 °C 1007.7 in /  34120.7 hPa West 17.7 mph /  28.5 km/h 40.2 mph /  64.7 km/h 91 % 0.5 in /  12.7 mm
10:31 9.4 °F /  -12.6 °C 7.8 °F /  -13.4 °C 1008.0 in /  34130.9 hPa WSW 24.1 mph /  38.8 km/h 46.7 mph /  75.2 km/h 90 % 0.5 in /  12.7 mm
10:37 9.6 °F /  -12.4 °C 7.9 °F /  -13.4 °C 1008.0 in /  34130.9 hPa West 16.3 mph /  26.2 km/h 29.0 mph /  46.7 km/h 89 % 0.5 in /  12.7 mm
10:43 9.7 °F /  -12.4 °C 8.0 °F /  -13.3 °C 1008.0 in /  34130.9 hPa WSW 25.9 mph /  41.7 km/h 30.6 mph /  49.2 km/h 89 % 0.3 in /  7.62 mm
10:49 9.8 °F /  -12.3 °C 8.1 °F /  -13.3 °C 1008.4 in /  34144.4 hPa West 24.1 mph /  38.8 km/h 37.0 mph /  59.5 km/h 89 % 0.0 in /  0 mm
10:55 9.8 °F /  -12.3 °C 8.1 °F /  -13.3 °C 1008.4 in /  34144.4 hPa West 14.3 mph /  23 km/h 27.4 mph /  44.1 km/h 89 % 0.0 in /  0 mm
11:01 9.8 °F /  -12.3 °C 8.1 °F /  -13.3 °C 1008.4 in /  34144.4 hPa SW 27.4 mph /  44.1 km/h 33.8 mph /  54.4 km/h 89 % 0.0 in /  0 mm
11:11 9.9 °F /  -12.3 °C 8.0 °F /  -13.3 °C 1008.4 in /  34144.4 hPa West 16.3 mph /  26.2 km/h 32.2 mph /  51.8 km/h 88 % 0.0 in /  0 mm
11:17 10.1 °F /  -12.2 °C 8.2 °F /  -13.2 °C 1008.7 in /  34154.6 hPa West 19.5 mph /  31.4 km/h 30.6 mph /  49.2 km/h 88 % 0.0 in /  0 mm
11:23 10.1 °F /  -12.2 °C 8.0 °F /  -13.3 °C 1008.4 in /  34144.4 hPa West 16.3 mph /  26.2 km/h 30.6 mph /  49.2 km/h 87 % 0.0 in /  0 mm
11:33 9.7 °F /  -12.4 °C 8.1 °F /  -13.3 °C 1008.4 in /  34144.4 hPa SSW 11.1 mph /  17.9 km/h 29.0 mph /  46.7 km/h 90 % 0.5 in /  12.7 mm
11:45 9.6 °F /  -12.4 °C 8.0 °F /  -13.3 °C 1008.4 in /  34144.4 hPa West 32.0 mph /  51.5 km/h 37.0 mph /  59.5 km/h 90 % 0.5 in /  12.7 mm
11:51 9.8 °F /  -12.3 °C 8.2 °F /  -13.2 °C 1008.0 in /  34130.9 hPa WNW 9.7 mph /  15.6 km/h 27.4 mph /  44.1 km/h 90 % 0.8 in /  20.32 mm
11:57 10.2 °F /  -12.1 °C 8.5 °F /  -13.1 °C 1008.0 in /  34130.9 hPa WSW 35.2 mph /  56.6 km/h 40.2 mph /  64.7 km/h 89 % 0.8 in /  20.32 mm
12:03 10.4 °F /  -12 °C 8.2 °F /  -13.2 °C 1008.0 in /  34130.9 hPa WSW 32.0 mph /  51.5 km/h 43.4 mph /  69.8 km/h 86 % 0.8 in /  20.32 mm
12:15 10.7 °F /  -11.8 °C 8.1 °F /  -13.3 °C 1008.0 in /  34130.9 hPa WSW 33.8 mph /  54.4 km/h 45.1 mph /  72.6 km/h 84 % 0.8 in /  20.32 mm
12:21 10.9 °F /  -11.7 °C 7.6 °F /  -13.6 °C 1008.0 in /  34130.9 hPa West 35.2 mph /  56.6 km/h 51.5 mph /  82.9 km/h 80 % 0.8 in /  20.32 mm
12:27 10.9 °F /  -11.7 °C 7.9 °F /  -13.4 °C 1007.7 in /  34120.7 hPa WSW 24.1 mph /  38.8 km/h 29.0 mph /  46.7 km/h 82 % 0.5 in /  12.7 mm
12:37 11.0 °F /  -11.7 °C 7.7 °F /  -13.5 °C 1007.7 in /  34120.7 hPa West 27.4 mph /  44.1 km/h 33.8 mph /  54.4 km/h 80 % 0.3 in /  7.62 mm
12:44 11.2 °F /  -11.6 °C 7.7 °F /  -13.5 °C 1007.3 in /  34107.2 hPa West 27.4 mph /  44.1 km/h 33.8 mph /  54.4 km/h 79 % 0.3 in /  7.62 mm
12:54 11.3 °F /  -11.5 °C 7.6 °F /  -13.6 °C 1007.3 in /  34107.2 hPa West 16.3 mph /  26.2 km/h 33.8 mph /  54.4 km/h 78 % 0.0 in /  0 mm
13:00 11.3 °F /  -11.5 °C 7.4 °F /  -13.7 °C 1007.7 in /  34120.7 hPa West 25.9 mph /  41.7 km/h 33.8 mph /  54.4 km/h 77 % 0.0 in /  0 mm
13:10 11.4 °F /  -11.4 °C 7.3 °F /  -13.7 °C 1007.7 in /  34120.7 hPa West 20.9 mph /  33.6 km/h 35.4 mph /  57 km/h 76 % 0.0 in /  0 mm
13:12 11.4 °F /  -11.4 °C 7.1 °F /  -13.8 °C 1007.7 in /  34120.7 hPa West 33.8 mph /  54.4 km/h 43.4 mph /  69.8 km/h 75 % 0.0 in /  0 mm
13:18 11.4 °F /  -11.4 °C 6.9 °F /  -13.9 °C 1007.3 in /  34107.2 hPa West 30.6 mph /  49.2 km/h 41.8 mph /  67.3 km/h 74 % 0.0 in /  0 mm
13:24 11.3 °F /  -11.5 °C 7.0 °F /  -13.9 °C 1007.7 in /  34120.7 hPa WNW 20.9 mph /  33.6 km/h 30.6 mph /  49.2 km/h 75 % 0.0 in /  0 mm
13:30 11.3 °F /  -11.5 °C 6.8 °F /  -14 °C 1007.3 in /  34107.2 hPa WNW 25.9 mph /  41.7 km/h 45.1 mph /  72.6 km/h 74 % 0.0 in /  0 mm
13:36 11.4 °F /  -11.4 °C 6.7 °F /  -14.1 °C 1007.3 in /  34107.2 hPa WNW 19.5 mph /  31.4 km/h 43.4 mph /  69.8 km/h 73 % 0.0 in /  0 mm
13:42 11.4 °F /  -11.4 °C 6.9 °F /  -13.9 °C 1007.7 in /  34120.7 hPa West 7.9 mph /  12.7 km/h 29.0 mph /  46.7 km/h 74 % 0.0 in /  0 mm
13:48 11.3 °F /  -11.5 °C 7.0 °F /  -13.9 °C 1007.3 in /  34107.2 hPa West 14.3 mph /  23 km/h 24.1 mph /  38.8 km/h 75 % 0.0 in /  0 mm
13:54 11.4 °F /  -11.4 °C 7.3 °F /  -13.7 °C 1007.3 in /  34107.2 hPa West 19.5 mph /  31.4 km/h 29.0 mph /  46.7 km/h 76 % 0.0 in /  0 mm
14:00 11.6 °F /  -11.3 °C 7.3 °F /  -13.7 °C 1007.0 in /  34097 hPa WSW 19.5 mph /  31.4 km/h 27.4 mph /  44.1 km/h 75 % 0.0 in /  0 mm
14:06 11.5 °F /  -11.4 °C 7.2 °F /  -13.8 °C 1007.0 in /  34097 hPa WSW 25.9 mph /  41.7 km/h 33.8 mph /  54.4 km/h 75 % 0.0 in /  0 mm
14:12 11.4 °F /  -11.4 °C 7.1 °F /  -13.8 °C 1007.0 in /  34097 hPa West 22.7 mph /  36.5 km/h 41.8 mph /  67.3 km/h 75 % 0.0 in /  0 mm
14:18 11.2 °F /  -11.6 °C 6.9 °F /  -13.9 °C 1007.0 in /  34097 hPa WSW 14.3 mph /  23 km/h 37.0 mph /  59.5 km/h 75 % 0.0 in /  0 mm
14:24 11.1 °F /  -11.6 °C 7.0 °F /  -13.9 °C 1007.0 in /  34097 hPa West 24.1 mph /  38.8 km/h 46.7 mph /  75.2 km/h 76 % 0.0 in /  0 mm
14:30 11.1 °F /  -11.6 °C 7.2 °F /  -13.8 °C 1006.7 in /  34086.9 hPa West 17.7 mph /  28.5 km/h 33.8 mph /  54.4 km/h 77 % 0.0 in /  0 mm
14:40 11.1 °F /  -11.6 °C 7.2 °F /  -13.8 °C 1006.7 in /  34086.9 hPa West 19.5 mph /  31.4 km/h 25.7 mph /  41.4 km/h 77 % 0.0 in /  0 mm
14:48 11.1 °F /  -11.6 °C 7.2 °F /  -13.8 °C 1006.3 in /  34073.3 hPa WSW 27.4 mph /  44.1 km/h 40.2 mph /  64.7 km/h 77 % 0.0 in /  0 mm
14:54 11.2 °F /  -11.6 °C 7.3 °F /  -13.7 °C 1006.3 in /  34073.3 hPa WSW 28.8 mph /  46.3 km/h 30.6 mph /  49.2 km/h 77 % 0.0 in /  0 mm
15:00 11.2 °F /  -11.6 °C 7.1 °F /  -13.8 °C 1006.3 in /  34073.3 hPa WSW 30.6 mph /  49.2 km/h 45.1 mph /  72.6 km/h 76 % 0.0 in /  0 mm
15:06 11.3 °F /  -11.5 °C 7.2 °F /  -13.8 °C 1006.3 in /  34073.3 hPa West 19.5 mph /  31.4 km/h 35.4 mph /  57 km/h 76 % 0.0 in /  0 mm
15:12 11.2 °F /  -11.6 °C 7.3 °F /  -13.7 °C 1006.0 in /  34063.2 hPa West 20.9 mph /  33.6 km/h 29.0 mph /  46.7 km/h 77 % 0.0 in /  0 mm
15:18 11.1 °F /  -11.6 °C 7.2 °F /  -13.8 °C 1006.3 in /  34073.3 hPa WSW 19.5 mph /  31.4 km/h 27.4 mph /  44.1 km/h 77 % 0.0 in /  0 mm
15:24 10.6 °F /  -11.9 °C 7.5 °F /  -13.6 °C 1006.3 in /  34073.3 hPa WSW 19.5 mph /  31.4 km/h 37.0 mph /  59.5 km/h 81 % 0.0 in /  0 mm
15:30 10.6 °F /  -11.9 °C 7.5 °F /  -13.6 °C 1006.0 in /  34063.2 hPa West 16.3 mph /  26.2 km/h 33.8 mph /  54.4 km/h 81 % 0.0 in /  0 mm
15:36 10.6 °F /  -11.9 °C 7.5 °F /  -13.6 °C 1005.6 in /  34049.6 hPa West 17.7 mph /  28.5 km/h 29.0 mph /  46.7 km/h 81 % 0.0 in /  0 mm
15:42 10.6 °F /  -11.9 °C 7.3 °F /  -13.7 °C 1006.0 in /  34063.2 hPa WSW 33.8 mph /  54.4 km/h 40.2 mph /  64.7 km/h 80 % 0.0 in /  0 mm
15:48 10.8 °F /  -11.8 °C 7.3 °F /  -13.7 °C 1006.0 in /  34063.2 hPa West 16.3 mph /  26.2 km/h 38.6 mph /  62.1 km/h 79 % 0.0 in /  0 mm
15:54 10.7 °F /  -11.8 °C 7.4 °F /  -13.7 °C 1005.6 in /  34049.6 hPa WSW 22.7 mph /  36.5 km/h 38.6 mph /  62.1 km/h 80 % 0.3 in /  7.62 mm
16:00 10.6 °F /  -11.9 °C 7.5 °F /  -13.6 °C 1005.6 in /  34049.6 hPa West 16.3 mph /  26.2 km/h 38.6 mph /  62.1 km/h 81 % 0.3 in /  7.62 mm
16:12 10.6 °F /  -11.9 °C 7.8 °F /  -13.4 °C 1005.6 in /  34049.6 hPa WSW 30.6 mph /  49.2 km/h 37.0 mph /  59.5 km/h 83 % 0.3 in /  7.62 mm
16:16 10.6 °F /  -11.9 °C 7.8 °F /  -13.4 °C 1005.6 in /  34049.6 hPa West 20.9 mph /  33.6 km/h 35.4 mph /  57 km/h 83 % 0.3 in /  7.62 mm
16:18 10.6 °F /  -11.9 °C 7.8 °F /  -13.4 °C 1005.6 in /  34049.6 hPa WSW 28.8 mph /  46.3 km/h 35.4 mph /  57 km/h 83 % 0.3 in /  7.62 mm
16:26 10.3 °F /  -12.1 °C 7.5 °F /  -13.6 °C 1005.3 in /  34039.5 hPa WSW 24.1 mph /  38.8 km/h 29.0 mph /  46.7 km/h 83 % 0.3 in /  7.62 mm
16:32 10.4 °F /  -12 °C 7.6 °F /  -13.6 °C 1005.6 in /  34049.6 hPa SW 30.6 mph /  49.2 km/h 41.8 mph /  67.3 km/h 83 % 0.3 in /  7.62 mm
16:38 10.4 °F /  -12 °C 7.6 °F /  -13.6 °C 1005.6 in /  34049.6 hPa West 17.7 mph /  28.5 km/h 25.7 mph /  41.4 km/h 83 % 0.3 in /  7.62 mm
16:44 10.5 °F /  -11.9 °C 7.6 °F /  -13.6 °C 1005.6 in /  34049.6 hPa WSW 28.8 mph /  46.3 km/h 35.4 mph /  57 km/h 82 % 0.3 in /  7.62 mm
16:50 10.1 °F /  -12.2 °C 7.5 °F /  -13.6 °C 1005.6 in /  34049.6 hPa WNW 35.2 mph /  56.6 km/h 40.2 mph /  64.7 km/h 84 % 0.3 in /  7.62 mm
17:02 9.6 °F /  -12.4 °C 6.9 °F /  -13.9 °C 1006.0 in /  34063.2 hPa WSW 16.3 mph /  26.2 km/h 41.8 mph /  67.3 km/h 83 % 0.3 in /  7.62 mm
17:08 9.7 °F /  -12.4 °C 7.3 °F /  -13.7 °C 1005.6 in /  34049.6 hPa West 13.0 mph /  20.9 km/h 20.9 mph /  33.6 km/h 85 % 0.3 in /  7.62 mm
17:14 9.7 °F /  -12.4 °C 7.3 °F /  -13.7 °C 1006.0 in /  34063.2 hPa WNW 16.3 mph /  26.2 km/h 16.3 mph /  26.2 km/h 85 % 0.3 in /  7.62 mm
17:24 9.7 °F /  -12.4 °C 7.1 °F /  -13.8 °C 1006.0 in /  34063.2 hPa West 25.9 mph /  41.7 km/h 33.8 mph /  54.4 km/h 84 % 0.3 in /  7.62 mm
17:30 9.6 °F /  -12.4 °C 7.2 °F /  -13.8 °C 1006.0 in /  34063.2 hPa West 20.9 mph /  33.6 km/h 40.2 mph /  64.7 km/h 85 % 0.5 in /  12.7 mm
17:36 9.3 °F /  -12.6 °C 6.9 °F /  -13.9 °C 1006.0 in /  34063.2 hPa West 24.1 mph /  38.8 km/h 40.2 mph /  64.7 km/h 85 % 0.5 in /  12.7 mm
17:48 8.9 °F /  -12.8 °C 6.7 °F /  -14.1 °C 1006.0 in /  34063.2 hPa West 17.7 mph /  28.5 km/h 29.0 mph /  46.7 km/h 86 % 0.5 in /  12.7 mm
18:00 8.9 °F /  -12.8 °C 7.0 °F /  -13.9 °C 1006.3 in /  34073.3 hPa SW 7.9 mph /  12.7 km/h 20.9 mph /  33.6 km/h 88 % 0.5 in /  12.7 mm
18:06 8.8 °F /  -12.9 °C 7.1 °F /  -13.8 °C 1006.0 in /  34063.2 hPa West 17.7 mph /  28.5 km/h 38.6 mph /  62.1 km/h 89 % 1.3 in /  33.02 mm
18:12 8.8 °F /  -12.9 °C 6.9 °F /  -13.9 °C 1005.6 in /  34049.6 hPa WNW 13.0 mph /  20.9 km/h 35.4 mph /  57 km/h 88 % 1.3 in /  33.02 mm
18:18 8.9 °F /  -12.8 °C 6.9 °F /  -13.9 °C 1005.6 in /  34049.6 hPa WSW 24.1 mph /  38.8 km/h 27.4 mph /  44.1 km/h 87 % 1.3 in /  33.02 mm
18:24 9.1 °F /  -12.7 °C 6.7 °F /  -14.1 °C 1005.6 in /  34049.6 hPa West 13.0 mph /  20.9 km/h 24.1 mph /  38.8 km/h 85 % 1.3 in /  33.02 mm
18:30 9.1 °F /  -12.7 °C 6.7 °F /  -14.1 °C 1005.6 in /  34049.6 hPa WSW 14.3 mph /  23 km/h 29.0 mph /  46.7 km/h 85 % 1.0 in /  25.4 mm
18:36 9.2 °F /  -12.7 °C 6.8 °F /  -14 °C 1006.0 in /  34063.2 hPa West 14.3 mph /  23 km/h 37.0 mph /  59.5 km/h 85 % 1.0 in /  25.4 mm
18:42 9.2 °F /  -12.7 °C 6.8 °F /  -14 °C 1005.6 in /  34049.6 hPa WSW 17.7 mph /  28.5 km/h 24.1 mph /  38.8 km/h 85 % 0.8 in /  20.32 mm
18:50 9.3 °F /  -12.6 °C 6.4 °F /  -14.2 °C 1005.6 in /  34049.6 hPa WNW 19.5 mph /  31.4 km/h 30.6 mph /  49.2 km/h 82 % 0.8 in /  20.32 mm
18:56 9.3 °F /  -12.6 °C 6.0 °F /  -14.4 °C 1006.0 in /  34063.2 hPa WSW 27.4 mph /  44.1 km/h 38.6 mph /  62.1 km/h 80 % 0.8 in /  20.32 mm
19:02 9.4 °F /  -12.6 °C 5.9 °F /  -14.5 °C 1006.0 in /  34063.2 hPa West 24.1 mph /  38.8 km/h 35.4 mph /  57 km/h 79 % 0.5 in /  12.7 mm
19:08 9.4 °F /  -12.6 °C 5.8 °F /  -14.6 °C 1006.0 in /  34063.2 hPa West 24.1 mph /  38.8 km/h 33.8 mph /  54.4 km/h 78 % 0.0 in /  0 mm
19:16 9.3 °F /  -12.6 °C 5.7 °F /  -14.6 °C 1006.0 in /  34063.2 hPa West 11.1 mph /  17.9 km/h 27.4 mph /  44.1 km/h 78 % 0.0 in /  0 mm
19:22 9.2 °F /  -12.7 °C 5.9 °F /  -14.5 °C 1006.0 in /  34063.2 hPa West 9.7 mph /  15.6 km/h 17.7 mph /  28.5 km/h 80 % 0.0 in /  0 mm
19:28 9.0 °F /  -12.8 °C 5.9 °F /  -14.5 °C 1006.0 in /  34063.2 hPa West 13.0 mph /  20.9 km/h 14.5 mph /  23.3 km/h 81 % 0.0 in /  0 mm
19:34 8.9 °F /  -12.8 °C 5.8 °F /  -14.6 °C 1005.6 in /  34049.6 hPa NW 4.7 mph /  7.6 km/h 11.3 mph /  18.2 km/h 81 % 0.0 in /  0 mm
19:40 8.7 °F /  -12.9 °C 5.8 °F /  -14.6 °C 1006.0 in /  34063.2 hPa WSW 6.4 mph /  10.3 km/h 12.9 mph /  20.8 km/h 82 % 0.0 in /  0 mm
19:50 8.4 °F /  -13.1 °C 5.9 °F /  -14.5 °C 1006.0 in /  34063.2 hPa West 11.1 mph /  17.9 km/h 11.3 mph /  18.2 km/h 84 % 0.0 in /  0 mm
19:58 8.3 °F /  -13.2 °C 5.6 °F /  -14.7 °C 1006.0 in /  34063.2 hPa West 6.4 mph /  10.3 km/h 17.7 mph /  28.5 km/h 83 % 0.0 in /  0 mm
20:10 8.6 °F /  -13 °C 5.2 °F /  -14.9 °C 1006.0 in /  34063.2 hPa West 20.9 mph /  33.6 km/h 27.4 mph /  44.1 km/h 79 % 0.0 in /  0 mm
20:16 8.6 °F /  -13 °C 5.0 °F /  -15 °C 1006.3 in /  34073.3 hPa West 24.1 mph /  38.8 km/h 30.6 mph /  49.2 km/h 78 % 0.0 in /  0 mm
20:22 8.8 °F /  -12.9 °C 4.8 °F /  -15.1 °C 1006.0 in /  34063.2 hPa WSW 20.9 mph /  33.6 km/h 29.0 mph /  46.7 km/h 76 % 0.0 in /  0 mm
20:28 8.9 °F /  -12.8 °C 4.7 °F /  -15.2 °C 1006.0 in /  34063.2 hPa WSW 32.0 mph /  51.5 km/h 35.4 mph /  57 km/h 75 % 0.0 in /  0 mm
20:34 8.9 °F /  -12.8 °C 4.9 °F /  -15.1 °C 1006.0 in /  34063.2 hPa WSW 20.9 mph /  33.6 km/h 30.6 mph /  49.2 km/h 76 % 0.3 in /  7.62 mm
20:54 8.7 °F /  -12.9 °C 5.6 °F /  -14.7 °C 1006.3 in /  34073.3 hPa SW 19.5 mph /  31.4 km/h 27.4 mph /  44.1 km/h 81 % 0.3 in /  7.62 mm
21:00 8.6 °F /  -13 °C 5.5 °F /  -14.7 °C 1006.3 in /  34073.3 hPa WSW 17.7 mph /  28.5 km/h 33.8 mph /  54.4 km/h 81 % 0.3 in /  7.62 mm
21:10 7.7 °F /  -13.5 °C 5.0 °F /  -15 °C 1006.0 in /  34063.2 hPa West 27.4 mph /  44.1 km/h 53.1 mph /  85.5 km/h 83 % 0.5 in /  12.7 mm
21:16 7.4 °F /  -13.7 °C 5.2 °F /  -14.9 °C 1006.0 in /  34063.2 hPa WSW 17.7 mph /  28.5 km/h 30.6 mph /  49.2 km/h 86 % 0.5 in /  12.7 mm
21:22 7.5 °F /  -13.6 °C 5.5 °F /  -14.7 °C 1006.3 in /  34073.3 hPa West 14.3 mph /  23 km/h 29.0 mph /  46.7 km/h 87 % 0.5 in /  12.7 mm
21:28 7.4 °F /  -13.7 °C 5.4 °F /  -14.8 °C 1006.3 in /  34073.3 hPa West 11.1 mph /  17.9 km/h 20.9 mph /  33.6 km/h 87 % 0.5 in /  12.7 mm
21:34 7.5 °F /  -13.6 °C 5.5 °F /  -14.7 °C 1006.0 in /  34063.2 hPa SW 13.0 mph /  20.9 km/h 30.6 mph /  49.2 km/h 87 % 0.3 in /  7.62 mm
21:40 7.7 °F /  -13.5 °C 5.7 °F /  -14.6 °C 1006.0 in /  34063.2 hPa WSW 20.9 mph /  33.6 km/h 33.8 mph /  54.4 km/h 87 % 0.3 in /  7.62 mm
21:52 7.6 °F /  -13.6 °C 5.6 °F /  -14.7 °C 1006.0 in /  34063.2 hPa WSW 27.4 mph /  44.1 km/h 32.2 mph /  51.8 km/h 87 % 0.5 in /  12.7 mm
22:00 7.2 °F /  -13.8 °C 5.3 °F /  -14.8 °C 1006.0 in /  34063.2 hPa WSW 20.9 mph /  33.6 km/h 24.1 mph /  38.8 km/h 88 % 0.5 in /  12.7 mm
22:06 7.1 °F /  -13.8 °C 5.4 °F /  -14.8 °C 1006.0 in /  34063.2 hPa West 9.7 mph /  15.6 km/h 22.5 mph /  36.2 km/h 89 % 0.5 in /  12.7 mm
22:14 7.1 °F /  -13.8 °C 5.6 °F /  -14.7 °C 1006.0 in /  34063.2 hPa WNW 6.4 mph /  10.3 km/h 14.5 mph /  23.3 km/h 90 % 0.5 in /  12.7 mm
22:20 7.1 °F /  -13.8 °C 5.6 °F /  -14.7 °C 1006.0 in /  34063.2 hPa West 7.9 mph /  12.7 km/h 14.5 mph /  23.3 km/h 90 % 0.5 in /  12.7 mm
22:28 7.2 °F /  -13.8 °C 5.3 °F /  -14.8 °C 1006.0 in /  34063.2 hPa West 20.9 mph /  33.6 km/h 29.0 mph /  46.7 km/h 88 % 0.5 in /  12.7 mm
22:34 7.4 °F /  -13.7 °C 5.2 °F /  -14.9 °C 1006.3 in /  34073.3 hPa SW 25.9 mph /  41.7 km/h 25.9 mph /  41.7 km/h 86 % 0.5 in /  12.7 mm
22:41 7.4 °F /  -13.7 °C 5.0 °F /  -15 °C 1006.0 in /  34063.2 hPa SW 25.9 mph /  41.7 km/h 32.2 mph /  51.8 km/h 85 % 0.5 in /  12.7 mm
22:46 7.6 °F /  -13.6 °C 5.1 °F /  -14.9 °C 1006.0 in /  34063.2 hPa West 13.0 mph /  20.9 km/h 33.8 mph /  54.4 km/h 84 % 0.5 in /  12.7 mm
22:52 7.6 °F /  -13.6 °C 5.1 °F /  -14.9 °C 1006.0 in /  34063.2 hPa WSW 17.7 mph /  28.5 km/h 20.9 mph /  33.6 km/h 84 % 0.5 in /  12.7 mm
22:58 7.6 °F /  -13.6 °C 4.9 °F /  -15.1 °C 1006.0 in /  34063.2 hPa WSW 20.9 mph /  33.6 km/h 29.0 mph /  46.7 km/h 83 % 0.3 in /  7.62 mm
23:04 7.7 °F /  -13.5 °C 4.8 °F /  -15.1 °C 1006.0 in /  34063.2 hPa SW 19.5 mph /  31.4 km/h 32.2 mph /  51.8 km/h 82 % 0.3 in /  7.62 mm
23:11 7.7 °F /  -13.5 °C 4.8 °F /  -15.1 °C 1006.0 in /  34063.2 hPa WSW 28.8 mph /  46.3 km/h 33.8 mph /  54.4 km/h 82 % 0.3 in /  7.62 mm
23:17 7.7 °F /  -13.5 °C 4.6 °F /  -15.2 °C 1005.6 in /  34049.6 hPa WNW 14.3 mph /  23 km/h 30.6 mph /  49.2 km/h 81 % 0.3 in /  7.62 mm
23:25 7.7 °F /  -13.5 °C 4.6 °F /  -15.2 °C 1006.0 in /  34063.2 hPa West 27.4 mph /  44.1 km/h 29.0 mph /  46.7 km/h 81 % 0.3 in /  7.62 mm
23:31 7.7 °F /  -13.5 °C 4.8 °F /  -15.1 °C 1005.6 in /  34049.6 hPa SW 17.7 mph /  28.5 km/h 27.4 mph /  44.1 km/h 82 % 0.3 in /  7.62 mm
23:43 7.6 °F /  -13.6 °C 4.5 °F /  -15.3 °C 1006.0 in /  34063.2 hPa West 33.8 mph /  54.4 km/h 38.6 mph /  62.1 km/h 81 % 0.0 in /  0 mm
23:49 7.6 °F /  -13.6 °C 4.5 °F /  -15.3 °C 1006.0 in /  34063.2 hPa WSW 14.3 mph /  23 km/h 38.6 mph /  62.1 km/h 81 % 0.0 in /  0 mm
23:55 7.6 °F /  -13.6 °C 4.5 °F /  -15.3 °C 1006.0 in /  34063.2 hPa West 24.1 mph /  38.8 km/h 33.8 mph /  54.4 km/h 81 % 0.0 in /  0 mm
Meteo18
Compliments of Weather Underground - 4 mb

Script developed by  Jim McMurry - jmcmurry@mwt.net Adapted for the template by  Wim van der Kuil - Leuven-Template.eu

You find our weather info also at:

European Weather Network

Weather Underground

Equipment we use:

Weather-station
Davis Vue

Weather-program
Meteobridge

Weather-server
Raspberry PI 2 B+

Provider
1 and 1

Davis Vue

Meteobridge

Raspberry PI 2 B+

1 and 1